sensor_id;sensor_type;location;lat;lon;timestamp;P1;durP1;ratioP1;P2;durP2;ratioP2
13685;SDS011;6915;48.296;8.874;2023-04-25T00:01:41;4.17;;;2.03;;
13685;SDS011;6915;48.296;8.874;2023-04-25T00:04:11;4.07;;;2.10;;
13685;SDS011;6915;48.296;8.874;2023-04-25T00:06:39;3.83;;;2.40;;
13685;SDS011;6915;48.296;8.874;2023-04-25T00:09:08;2.37;;;2.07;;
13685;SDS011;6915;48.296;8.874;2023-04-25T00:11:37;2.30;;;2.10;;
13685;SDS011;6915;48.296;8.874;2023-04-25T00:14:06;2.13;;;1.93;;
13685;SDS011;6915;48.296;8.874;2023-04-25T00:16:35;2.80;;;2.10;;
13685;SDS011;6915;48.296;8.874;2023-04-25T00:19:04;4.37;;;2.03;;
13685;SDS011;6915;48.296;8.874;2023-04-25T00:21:36;4.97;;;2.00;;
13685;SDS011;6915;48.296;8.874;2023-04-25T00:24:05;3.50;;;2.20;;
13685;SDS011;6915;48.296;8.874;2023-04-25T00:26:34;3.90;;;2.30;;
13685;SDS011;6915;48.296;8.874;2023-04-25T00:29:03;2.57;;;2.13;;
13685;SDS011;6915;48.296;8.874;2023-04-25T00:31:33;3.20;;;2.20;;
13685;SDS011;6915;48.296;8.874;2023-04-25T00:34:01;3.57;;;2.47;;
13685;SDS011;6915;48.296;8.874;2023-04-25T00:36:30;2.80;;;2.10;;
13685;SDS011;6915;48.296;8.874;2023-04-25T00:39:00;2.53;;;2.20;;
13685;SDS011;6915;48.296;8.874;2023-04-25T00:41:30;3.33;;;2.10;;
13685;SDS011;6915;48.296;8.874;2023-04-25T00:43:59;2.87;;;2.10;;
13685;SDS011;6915;48.296;8.874;2023-04-25T00:46:28;3.73;;;2.40;;
13685;SDS011;6915;48.296;8.874;2023-04-25T00:48:57;2.90;;;2.13;;
13685;SDS011;6915;48.296;8.874;2023-04-25T00:51:26;5.03;;;2.00;;
13685;SDS011;6915;48.296;8.874;2023-04-25T00:53:57;5.33;;;1.87;;
13685;SDS011;6915;48.296;8.874;2023-04-25T00:56:27;2.70;;;1.90;;
13685;SDS011;6915;48.296;8.874;2023-04-25T00:58:56;3.80;;;2.10;;
13685;SDS011;6915;48.296;8.874;2023-04-25T01:01:25;2.50;;;1.90;;
13685;SDS011;6915;48.296;8.874;2023-04-25T01:03:54;2.87;;;2.00;;
13685;SDS011;6915;48.296;8.874;2023-04-25T01:06:24;4.00;;;2.00;;
13685;SDS011;6915;48.296;8.874;2023-04-25T01:08:53;3.47;;;2.00;;
13685;SDS011;6915;48.296;8.874;2023-04-25T01:11:22;3.40;;;2.17;;
13685;SDS011;6915;48.296;8.874;2023-04-25T01:13:52;4.60;;;1.90;;
13685;SDS011;6915;48.296;8.874;2023-04-25T01:16:21;3.47;;;2.20;;
13685;SDS011;6915;48.296;8.874;2023-04-25T01:18:50;6.03;;;2.30;;
13685;SDS011;6915;48.296;8.874;2023-04-25T01:21:21;6.30;;;2.30;;
13685;SDS011;6915;48.296;8.874;2023-04-25T01:23:52;2.87;;;2.40;;
13685;SDS011;6915;48.296;8.874;2023-04-25T01:26:21;4.10;;;2.60;;
13685;SDS011;6915;48.296;8.874;2023-04-25T01:28:50;2.20;;;1.60;;
13685;SDS011;6915;48.296;8.874;2023-04-25T01:31:19;2.47;;;1.50;;
13685;SDS011;6915;48.296;8.874;2023-04-25T01:33:48;2.43;;;1.67;;
13685;SDS011;6915;48.296;8.874;2023-04-25T01:36:17;2.43;;;1.70;;
13685;SDS011;6915;48.296;8.874;2023-04-25T01:38:48;2.67;;;1.60;;
13685;SDS011;6915;48.296;8.874;2023-04-25T01:41:17;3.53;;;1.90;;
13685;SDS011;6915;48.296;8.874;2023-04-25T01:43:48;3.90;;;2.23;;
13685;SDS011;6915;48.296;8.874;2023-04-25T01:46:16;3.77;;;1.97;;
13685;SDS011;6915;48.296;8.874;2023-04-25T01:48:45;2.97;;;1.90;;
13685;SDS011;6915;48.296;8.874;2023-04-25T01:51:14;2.03;;;1.70;;
13685;SDS011;6915;48.296;8.874;2023-04-25T01:53:43;2.30;;;1.80;;
13685;SDS011;6915;48.296;8.874;2023-04-25T01:56:13;2.20;;;1.77;;
13685;SDS011;6915;48.296;8.874;2023-04-25T01:58:43;3.37;;;1.97;;
13685;SDS011;6915;48.296;8.874;2023-04-25T02:01:12;2.57;;;1.70;;
13685;SDS011;6915;48.296;8.874;2023-04-25T02:03:42;3.43;;;2.13;;
13685;SDS011;6915;48.296;8.874;2023-04-25T02:06:11;3.63;;;2.00;;
13685;SDS011;6915;48.296;8.874;2023-04-25T02:08:40;2.30;;;2.10;;
13685;SDS011;6915;48.296;8.874;2023-04-25T02:11:08;5.30;;;2.20;;
13685;SDS011;6915;48.296;8.874;2023-04-25T02:13:38;2.93;;;2.13;;
13685;SDS011;6915;48.296;8.874;2023-04-25T02:16:07;2.67;;;2.07;;
13685;SDS011;6915;48.296;8.874;2023-04-25T02:18:36;2.60;;;2.30;;
13685;SDS011;6915;48.296;8.874;2023-04-25T02:21:04;3.77;;;2.20;;
13685;SDS011;6915;48.296;8.874;2023-04-25T02:23:33;2.77;;;2.00;;
13685;SDS011;6915;48.296;8.874;2023-04-25T02:26:02;2.83;;;2.23;;
13685;SDS011;6915;48.296;8.874;2023-04-25T02:28:30;3.77;;;2.17;;
13685;SDS011;6915;48.296;8.874;2023-04-25T02:31:00;3.03;;;1.93;;
13685;SDS011;6915;48.296;8.874;2023-04-25T02:33:29;3.20;;;2.10;;
13685;SDS011;6915;48.296;8.874;2023-04-25T02:35:58;3.63;;;2.27;;
13685;SDS011;6915;48.296;8.874;2023-04-25T02:38:26;2.93;;;2.20;;
13685;SDS011;6915;48.296;8.874;2023-04-25T02:40:55;2.87;;;2.00;;
13685;SDS011;6915;48.296;8.874;2023-04-25T02:43:23;3.13;;;2.20;;
13685;SDS011;6915;48.296;8.874;2023-04-25T02:45:52;3.87;;;2.30;;
13685;SDS011;6915;48.296;8.874;2023-04-25T02:48:22;3.33;;;2.23;;
13685;SDS011;6915;48.296;8.874;2023-04-25T02:50:51;2.87;;;2.07;;
13685;SDS011;6915;48.296;8.874;2023-04-25T02:53:19;3.63;;;2.33;;
13685;SDS011;6915;48.296;8.874;2023-04-25T02:55:46;2.63;;;2.07;;
13685;SDS011;6915;48.296;8.874;2023-04-25T02:58:17;3.83;;;2.40;;
13685;SDS011;6915;48.296;8.874;2023-04-25T03:00:46;2.30;;;2.10;;
13685;SDS011;6915;48.296;8.874;2023-04-25T03:03:14;4.90;;;2.57;;
13685;SDS011;6915;48.296;8.874;2023-04-25T03:05:47;3.17;;;2.00;;
13685;SDS011;6915;48.296;8.874;2023-04-25T03:08:16;5.77;;;2.10;;
13685;SDS011;6915;48.296;8.874;2023-04-25T03:10:45;3.67;;;2.37;;
13685;SDS011;6915;48.296;8.874;2023-04-25T03:13:15;5.13;;;2.27;;
13685;SDS011;6915;48.296;8.874;2023-04-25T03:15:44;5.33;;;2.30;;
13685;SDS011;6915;48.296;8.874;2023-04-25T03:18:12;3.60;;;2.20;;
13685;SDS011;6915;48.296;8.874;2023-04-25T03:20:41;5.23;;;2.40;;
13685;SDS011;6915;48.296;8.874;2023-04-25T03:23:11;2.93;;;2.40;;
13685;SDS011;6915;48.296;8.874;2023-04-25T03:25:40;4.13;;;2.40;;
13685;SDS011;6915;48.296;8.874;2023-04-25T03:28:11;4.03;;;2.20;;
13685;SDS011;6915;48.296;8.874;2023-04-25T03:30:39;4.53;;;2.37;;
13685;SDS011;6915;48.296;8.874;2023-04-25T03:33:08;4.33;;;2.43;;
13685;SDS011;6915;48.296;8.874;2023-04-25T03:35:36;3.20;;;1.93;;
13685;SDS011;6915;48.296;8.874;2023-04-25T03:38:07;4.90;;;2.47;;
13685;SDS011;6915;48.296;8.874;2023-04-25T03:40:37;2.67;;;2.40;;
13685;SDS011;6915;48.296;8.874;2023-04-25T03:43:06;4.00;;;2.40;;
13685;SDS011;6915;48.296;8.874;2023-04-25T03:45:34;2.87;;;2.23;;
13685;SDS011;6915;48.296;8.874;2023-04-25T03:48:03;5.17;;;2.67;;
13685;SDS011;6915;48.296;8.874;2023-04-25T03:50:32;4.03;;;2.60;;
13685;SDS011;6915;48.296;8.874;2023-04-25T03:53:01;2.93;;;2.63;;
13685;SDS011;6915;48.296;8.874;2023-04-25T03:55:29;2.60;;;2.40;;
13685;SDS011;6915;48.296;8.874;2023-04-25T03:57:59;2.83;;;2.10;;
13685;SDS011;6915;48.296;8.874;2023-04-25T04:00:28;3.67;;;2.53;;
13685;SDS011;6915;48.296;8.874;2023-04-25T04:02:57;8.30;;;2.50;;
13685;SDS011;6915;48.296;8.874;2023-04-25T04:05:26;3.63;;;2.80;;
13685;SDS011;6915;48.296;8.874;2023-04-25T04:07:56;4.47;;;2.53;;
13685;SDS011;6915;48.296;8.874;2023-04-25T04:10:25;3.27;;;2.80;;
13685;SDS011;6915;48.296;8.874;2023-04-25T04:12:54;2.83;;;2.40;;
13685;SDS011;6915;48.296;8.874;2023-04-25T04:15:23;2.60;;;2.40;;
13685;SDS011;6915;48.296;8.874;2023-04-25T04:17:52;3.70;;;2.60;;
13685;SDS011;6915;48.296;8.874;2023-04-25T04:20:21;2.70;;;2.37;;
13685;SDS011;6915;48.296;8.874;2023-04-25T04:22:51;3.43;;;2.40;;
13685;SDS011;6915;48.296;8.874;2023-04-25T04:25:20;4.57;;;2.63;;
13685;SDS011;6915;48.296;8.874;2023-04-25T04:27:49;5.83;;;2.40;;
13685;SDS011;6915;48.296;8.874;2023-04-25T04:30:19;4.87;;;2.50;;
13685;SDS011;6915;48.296;8.874;2023-04-25T04:32:50;5.83;;;2.60;;
13685;SDS011;6915;48.296;8.874;2023-04-25T04:35:18;2.87;;;2.50;;
13685;SDS011;6915;48.296;8.874;2023-04-25T04:37:47;4.93;;;2.27;;
13685;SDS011;6915;48.296;8.874;2023-04-25T04:40:18;2.93;;;2.50;;
13685;SDS011;6915;48.296;8.874;2023-04-25T04:42:47;3.37;;;2.63;;
13685;SDS011;6915;48.296;8.874;2023-04-25T04:45:16;4.00;;;2.77;;
13685;SDS011;6915;48.296;8.874;2023-04-25T04:47:45;4.80;;;3.37;;
13685;SDS011;6915;48.296;8.874;2023-04-25T04:50:16;7.07;;;3.80;;
13685;SDS011;6915;48.296;8.874;2023-04-25T04:52:45;6.00;;;3.33;;
13685;SDS011;6915;48.296;8.874;2023-04-25T04:55:13;3.40;;;2.90;;
13685;SDS011;6915;48.296;8.874;2023-04-25T04:57:42;3.20;;;2.90;;
13685;SDS011;6915;48.296;8.874;2023-04-25T05:00:11;3.53;;;2.80;;
13685;SDS011;6915;48.296;8.874;2023-04-25T05:02:41;5.43;;;3.50;;
13685;SDS011;6915;48.296;8.874;2023-04-25T05:05:11;7.13;;;3.20;;
13685;SDS011;6915;48.296;8.874;2023-04-25T05:07:41;4.23;;;2.60;;
13685;SDS011;6915;48.296;8.874;2023-04-25T05:10:10;4.43;;;2.70;;
13685;SDS011;6915;48.296;8.874;2023-04-25T05:12:39;4.93;;;2.63;;
13685;SDS011;6915;48.296;8.874;2023-04-25T05:15:07;4.40;;;2.67;;
13685;SDS011;6915;48.296;8.874;2023-04-25T05:17:36;3.77;;;2.57;;
13685;SDS011;6915;48.296;8.874;2023-04-25T05:20:05;3.57;;;2.50;;
13685;SDS011;6915;48.296;8.874;2023-04-25T05:22:34;2.93;;;2.37;;
13685;SDS011;6915;48.296;8.874;2023-04-25T05:25:04;3.67;;;2.37;;
13685;SDS011;6915;48.296;8.874;2023-04-25T05:27:33;4.60;;;2.23;;
13685;SDS011;6915;48.296;8.874;2023-04-25T05:30:02;2.60;;;2.40;;
13685;SDS011;6915;48.296;8.874;2023-04-25T05:32:33;2.90;;;2.47;;
13685;SDS011;6915;48.296;8.874;2023-04-25T05:35:01;3.57;;;2.67;;
13685;SDS011;6915;48.296;8.874;2023-04-25T05:37:31;2.47;;;2.27;;
13685;SDS011;6915;48.296;8.874;2023-04-25T05:40:01;2.97;;;2.63;;
13685;SDS011;6915;48.296;8.874;2023-04-25T05:42:32;3.83;;;2.60;;
13685;SDS011;6915;48.296;8.874;2023-04-25T05:45:02;3.60;;;2.77;;
13685;SDS011;6915;48.296;8.874;2023-04-25T05:47:31;3.47;;;2.57;;
13685;SDS011;6915;48.296;8.874;2023-04-25T05:50:00;3.40;;;3.00;;
13685;SDS011;6915;48.296;8.874;2023-04-25T05:52:29;3.10;;;2.60;;
13685;SDS011;6915;48.296;8.874;2023-04-25T05:54:58;3.50;;;2.77;;
13685;SDS011;6915;48.296;8.874;2023-04-25T05:57:29;3.93;;;2.90;;
13685;SDS011;6915;48.296;8.874;2023-04-25T05:59:57;2.97;;;2.67;;
13685;SDS011;6915;48.296;8.874;2023-04-25T06:02:27;5.07;;;2.80;;
13685;SDS011;6915;48.296;8.874;2023-04-25T06:04:55;2.97;;;2.70;;
13685;SDS011;6915;48.296;8.874;2023-04-25T06:07:26;3.43;;;2.70;;
13685;SDS011;6915;48.296;8.874;2023-04-25T06:09:56;2.47;;;2.27;;
13685;SDS011;6915;48.296;8.874;2023-04-25T06:12:25;2.40;;;2.20;;
13685;SDS011;6915;48.296;8.874;2023-04-25T06:14:55;2.70;;;2.20;;
13685;SDS011;6915;48.296;8.874;2023-04-25T06:17:24;3.93;;;2.10;;
13685;SDS011;6915;48.296;8.874;2023-04-25T06:19:52;3.90;;;2.30;;
13685;SDS011;6915;48.296;8.874;2023-04-25T06:22:21;2.97;;;2.27;;
13685;SDS011;6915;48.296;8.874;2023-04-25T06:24:50;3.00;;;2.30;;
13685;SDS011;6915;48.296;8.874;2023-04-25T06:27:18;4.13;;;2.10;;
13685;SDS011;6915;48.296;8.874;2023-04-25T06:29:47;4.50;;;2.40;;
13685;SDS011;6915;48.296;8.874;2023-04-25T06:32:18;3.70;;;2.53;;
13685;SDS011;6915;48.296;8.874;2023-04-25T06:34:47;7.27;;;2.27;;
13685;SDS011;6915;48.296;8.874;2023-04-25T06:37:16;4.60;;;2.50;;
13685;SDS011;6915;48.296;8.874;2023-04-25T06:39:45;4.13;;;2.57;;
13685;SDS011;6915;48.296;8.874;2023-04-25T06:42:14;4.33;;;3.00;;
13685;SDS011;6915;48.296;8.874;2023-04-25T06:44:44;2.43;;;2.23;;
13685;SDS011;6915;48.296;8.874;2023-04-25T06:47:12;3.50;;;2.30;;
13685;SDS011;6915;48.296;8.874;2023-04-25T06:49:42;3.93;;;2.40;;
13685;SDS011;6915;48.296;8.874;2023-04-25T06:52:11;2.83;;;2.30;;
13685;SDS011;6915;48.296;8.874;2023-04-25T06:54:39;3.50;;;2.80;;
13685;SDS011;6915;48.296;8.874;2023-04-25T06:57:08;4.43;;;2.63;;
13685;SDS011;6915;48.296;8.874;2023-04-25T06:59:37;5.07;;;2.33;;
13685;SDS011;6915;48.296;8.874;2023-04-25T07:02:05;3.70;;;2.43;;
13685;SDS011;6915;48.296;8.874;2023-04-25T07:04:34;3.73;;;2.27;;
13685;SDS011;6915;48.296;8.874;2023-04-25T07:07:04;4.67;;;2.23;;
13685;SDS011;6915;48.296;8.874;2023-04-25T07:09:34;8.23;;;2.90;;
13685;SDS011;6915;48.296;8.874;2023-04-25T07:12:02;5.53;;;2.73;;
13685;SDS011;6915;48.296;8.874;2023-04-25T07:14:31;5.17;;;3.13;;
13685;SDS011;6915;48.296;8.874;2023-04-25T07:17:00;7.17;;;3.43;;
13685;SDS011;6915;48.296;8.874;2023-04-25T07:19:31;5.00;;;2.93;;
13685;SDS011;6915;48.296;8.874;2023-04-25T07:22:00;4.83;;;3.30;;
13685;SDS011;6915;48.296;8.874;2023-04-25T07:24:30;3.60;;;3.30;;
13685;SDS011;6915;48.296;8.874;2023-04-25T07:26:59;4.67;;;3.50;;
13685;SDS011;6915;48.296;8.874;2023-04-25T07:29:28;8.13;;;3.50;;
13685;SDS011;6915;48.296;8.874;2023-04-25T07:31:57;4.20;;;3.20;;
13685;SDS011;6915;48.296;8.874;2023-04-25T07:34:25;8.13;;;3.67;;
13685;SDS011;6915;48.296;8.874;2023-04-25T07:36:55;4.50;;;3.03;;
13685;SDS011;6915;48.296;8.874;2023-04-25T07:39:24;4.93;;;3.63;;
13685;SDS011;6915;48.296;8.874;2023-04-25T07:41:54;5.80;;;3.90;;
13685;SDS011;6915;48.296;8.874;2023-04-25T07:44:25;3.80;;;3.40;;
13685;SDS011;6915;48.296;8.874;2023-04-25T07:46:55;7.47;;;3.63;;
13685;SDS011;6915;48.296;8.874;2023-04-25T07:49:24;6.37;;;3.30;;
13685;SDS011;6915;48.296;8.874;2023-04-25T07:51:52;6.87;;;3.60;;
13685;SDS011;6915;48.296;8.874;2023-04-25T07:54:21;6.07;;;4.27;;
13685;SDS011;6915;48.296;8.874;2023-04-25T07:56:50;4.77;;;3.50;;
13685;SDS011;6915;48.296;8.874;2023-04-25T07:59:20;6.53;;;3.60;;
13685;SDS011;6915;48.296;8.874;2023-04-25T08:01:49;5.90;;;2.60;;
13685;SDS011;6915;48.296;8.874;2023-04-25T08:04:17;2.90;;;2.57;;
13685;SDS011;6915;48.296;8.874;2023-04-25T08:06:46;3.20;;;2.33;;
13685;SDS011;6915;48.296;8.874;2023-04-25T08:09:15;4.97;;;2.37;;
13685;SDS011;6915;48.296;8.874;2023-04-25T08:11:44;3.83;;;2.30;;
13685;SDS011;6915;48.296;8.874;2023-04-25T08:14:13;5.50;;;2.30;;
13685;SDS011;6915;48.296;8.874;2023-04-25T08:16:43;4.40;;;2.30;;
13685;SDS011;6915;48.296;8.874;2023-04-25T08:19:12;3.90;;;2.53;;
13685;SDS011;6915;48.296;8.874;2023-04-25T08:21:41;2.57;;;1.83;;
13685;SDS011;6915;48.296;8.874;2023-04-25T08:24:09;1.87;;;1.67;;
13685;SDS011;6915;48.296;8.874;2023-04-25T08:26:38;1.20;;;1.10;;
13685;SDS011;6915;48.296;8.874;2023-04-25T08:29:07;1.47;;;1.30;;
13685;SDS011;6915;48.296;8.874;2023-04-25T08:31:36;2.67;;;1.60;;
13685;SDS011;6915;48.296;8.874;2023-04-25T08:34:06;4.50;;;1.83;;
13685;SDS011;6915;48.296;8.874;2023-04-25T08:36:36;1.27;;;1.17;;
13685;SDS011;6915;48.296;8.874;2023-04-25T08:39:05;1.20;;;0.73;;
13685;SDS011;6915;48.296;8.874;2023-04-25T08:41:35;0.50;;;0.50;;
13685;SDS011;6915;48.296;8.874;2023-04-25T08:44:06;1.27;;;0.60;;
13685;SDS011;6915;48.296;8.874;2023-04-25T08:46:37;0.90;;;0.70;;
13685;SDS011;6915;48.296;8.874;2023-04-25T08:49:08;0.93;;;0.93;;
13685;SDS011;6915;48.296;8.874;2023-04-25T08:51:41;0.80;;;0.77;;
13685;SDS011;6915;48.296;8.874;2023-04-25T08:54:13;1.10;;;0.83;;
13685;SDS011;6915;48.296;8.874;2023-04-25T08:56:43;0.90;;;0.80;;
13685;SDS011;6915;48.296;8.874;2023-04-25T08:59:14;4.60;;;0.90;;
13685;SDS011;6915;48.296;8.874;2023-04-25T09:01:43;0.70;;;0.70;;
13685;SDS011;6915;48.296;8.874;2023-04-25T09:04:14;0.93;;;0.60;;
13685;SDS011;6915;48.296;8.874;2023-04-25T09:06:45;0.60;;;0.60;;
13685;SDS011;6915;48.296;8.874;2023-04-25T09:09:14;0.20;;;0.20;;
13685;SDS011;6915;48.296;8.874;2023-04-25T09:11:43;0.20;;;0.20;;
13685;SDS011;6915;48.296;8.874;2023-04-25T09:14:14;0.20;;;0.20;;
13685;SDS011;6915;48.296;8.874;2023-04-25T09:19:39;0.30;;;0.30;;
13685;SDS011;6915;48.296;8.874;2023-04-25T09:22:10;0.63;;;0.23;;
13685;SDS011;6915;48.296;8.874;2023-04-25T09:37:33;0.33;;;0.30;;
13685;SDS011;6915;48.296;8.874;2023-04-25T09:40:05;0.40;;;0.40;;
13685;SDS011;6915;48.296;8.874;2023-04-25T09:42:33;0.40;;;0.40;;
13685;SDS011;6915;48.296;8.874;2023-04-25T09:45:02;0.40;;;0.30;;
13685;SDS011;6915;48.296;8.874;2023-04-25T09:47:32;0.30;;;0.30;;
13685;SDS011;6915;48.296;8.874;2023-04-25T09:50:13;0.33;;;0.30;;
13685;SDS011;6915;48.296;8.874;2023-04-25T09:52:45;0.20;;;0.20;;
13685;SDS011;6915;48.296;8.874;2023-04-25T09:55:28;0.50;;;0.20;;
13685;SDS011;6915;48.296;8.874;2023-04-25T09:57:57;0.27;;;0.27;;
13685;SDS011;6915;48.296;8.874;2023-04-25T10:00:30;0.30;;;0.30;;
13685;SDS011;6915;48.296;8.874;2023-04-25T10:03:00;0.30;;;0.30;;
13685;SDS011;6915;48.296;8.874;2023-04-25T10:05:32;1.50;;;0.30;;
13685;SDS011;6915;48.296;8.874;2023-04-25T10:08:04;0.93;;;0.40;;
13685;SDS011;6915;48.296;8.874;2023-04-25T10:10:42;1.73;;;0.53;;
13685;SDS011;6915;48.296;8.874;2023-04-25T10:13:13;0.20;;;0.20;;
13685;SDS011;6915;48.296;8.874;2023-04-25T10:15:42;0.87;;;0.53;;
13685;SDS011;6915;48.296;8.874;2023-04-25T10:18:13;0.30;;;0.30;;
13685;SDS011;6915;48.296;8.874;2023-04-25T10:20:43;0.50;;;0.50;;
13685;SDS011;6915;48.296;8.874;2023-04-25T10:23:13;0.47;;;0.33;;
13685;SDS011;6915;48.296;8.874;2023-04-25T10:25:43;0.30;;;0.30;;
13685;SDS011;6915;48.296;8.874;2023-04-25T10:28:12;0.30;;;0.30;;
13685;SDS011;6915;48.296;8.874;2023-04-25T10:30:58;0.30;;;0.30;;
13685;SDS011;6915;48.296;8.874;2023-04-25T10:33:33;0.27;;;0.27;;
13685;SDS011;6915;48.296;8.874;2023-04-25T10:36:13;0.20;;;0.20;;
13685;SDS011;6915;48.296;8.874;2023-04-25T10:38:45;0.33;;;0.27;;
13685;SDS011;6915;48.296;8.874;2023-04-25T10:41:17;0.40;;;0.40;;
13685;SDS011;6915;48.296;8.874;2023-04-25T10:43:48;0.30;;;0.30;;
13685;SDS011;6915;48.296;8.874;2023-04-25T10:46:26;0.40;;;0.40;;
13685;SDS011;6915;48.296;8.874;2023-04-25T10:48:56;0.60;;;0.60;;
13685;SDS011;6915;48.296;8.874;2023-04-25T10:51:26;0.90;;;0.90;;
13685;SDS011;6915;48.296;8.874;2023-04-25T10:53:59;0.77;;;0.40;;
13685;SDS011;6915;48.296;8.874;2023-04-25T10:56:29;1.40;;;1.30;;
13685;SDS011;6915;48.296;8.874;2023-04-25T10:59:05;1.67;;;1.57;;
13685;SDS011;6915;48.296;8.874;2023-04-25T11:01:37;0.27;;;0.27;;
13685;SDS011;6915;48.296;8.874;2023-04-25T11:04:05;0.93;;;0.30;;
13685;SDS011;6915;48.296;8.874;2023-04-25T11:06:46;0.40;;;0.20;;
13685;SDS011;6915;48.296;8.874;2023-04-25T11:09:28;0.30;;;0.30;;
13685;SDS011;6915;48.296;8.874;2023-04-25T11:11:59;0.90;;;0.57;;
13685;SDS011;6915;48.296;8.874;2023-04-25T11:14:28;0.43;;;0.43;;
13685;SDS011;6915;48.296;8.874;2023-04-25T11:16:57;1.30;;;0.63;;
13685;SDS011;6915;48.296;8.874;2023-04-25T11:19:27;0.60;;;0.60;;
13685;SDS011;6915;48.296;8.874;2023-04-25T11:21:56;0.67;;;0.50;;
13685;SDS011;6915;48.296;8.874;2023-04-25T11:24:28;0.80;;;0.80;;
13685;SDS011;6915;48.296;8.874;2023-04-25T11:27:00;0.90;;;0.90;;
13685;SDS011;6915;48.296;8.874;2023-04-25T11:29:31;0.50;;;0.50;;
13685;SDS011;6915;48.296;8.874;2023-04-25T11:32:00;0.50;;;0.50;;
13685;SDS011;6915;48.296;8.874;2023-04-25T11:34:31;0.57;;;0.57;;
13685;SDS011;6915;48.296;8.874;2023-04-25T11:37:00;0.97;;;0.70;;
13685;SDS011;6915;48.296;8.874;2023-04-25T11:39:30;0.60;;;0.60;;
13685;SDS011;6915;48.296;8.874;2023-04-25T11:41:59;0.60;;;0.60;;
13685;SDS011;6915;48.296;8.874;2023-04-25T11:44:30;0.60;;;0.60;;
13685;SDS011;6915;48.296;8.874;2023-04-25T11:46:59;0.30;;;0.30;;
13685;SDS011;6915;48.296;8.874;2023-04-25T11:49:30;0.30;;;0.30;;
13685;SDS011;6915;48.296;8.874;2023-04-25T11:52:00;0.33;;;0.30;;
13685;SDS011;6915;48.296;8.874;2023-04-25T11:54:30;0.70;;;0.70;;
13685;SDS011;6915;48.296;8.874;2023-04-25T11:57:00;0.53;;;0.53;;
13685;SDS011;6915;48.296;8.874;2023-04-25T11:59:29;1.53;;;1.00;;
13685;SDS011;6915;48.296;8.874;2023-04-25T12:01:58;0.93;;;0.93;;
13685;SDS011;6915;48.296;8.874;2023-04-25T12:04:29;0.80;;;0.80;;
13685;SDS011;6915;48.296;8.874;2023-04-25T12:06:58;1.33;;;1.23;;
13685;SDS011;6915;48.296;8.874;2023-04-25T12:09:28;0.70;;;0.50;;
13685;SDS011;6915;48.296;8.874;2023-04-25T12:11:59;0.70;;;0.70;;
13685;SDS011;6915;48.296;8.874;2023-04-25T12:14:29;0.87;;;0.50;;
13685;SDS011;6915;48.296;8.874;2023-04-25T12:17:00;0.40;;;0.40;;
13685;SDS011;6915;48.296;8.874;2023-04-25T12:19:33;0.60;;;0.60;;
13685;SDS011;6915;48.296;8.874;2023-04-25T12:22:18;0.50;;;0.50;;
13685;SDS011;6915;48.296;8.874;2023-04-25T12:24:46;0.40;;;0.40;;
13685;SDS011;6915;48.296;8.874;2023-04-25T12:27:16;0.60;;;0.60;;
13685;SDS011;6915;48.296;8.874;2023-04-25T12:29:52;0.67;;;0.47;;
13685;SDS011;6915;48.296;8.874;2023-04-25T12:32:22;0.87;;;0.70;;
13685;SDS011;6915;48.296;8.874;2023-04-25T12:34:51;0.50;;;0.50;;
13685;SDS011;6915;48.296;8.874;2023-04-25T12:37:20;0.40;;;0.40;;
13685;SDS011;6915;48.296;8.874;2023-04-25T12:39:49;0.93;;;0.63;;
13685;SDS011;6915;48.296;8.874;2023-04-25T12:42:19;2.07;;;1.87;;
13685;SDS011;6915;48.296;8.874;2023-04-25T12:44:48;1.30;;;1.07;;
13685;SDS011;6915;48.296;8.874;2023-04-25T12:47:17;1.00;;;0.90;;
13685;SDS011;6915;48.296;8.874;2023-04-25T12:49:46;0.80;;;0.80;;
13685;SDS011;6915;48.296;8.874;2023-04-25T12:52:16;0.70;;;0.70;;
13685;SDS011;6915;48.296;8.874;2023-04-25T12:54:45;2.30;;;2.20;;
13685;SDS011;6915;48.296;8.874;2023-04-25T12:57:14;1.50;;;1.40;;
13685;SDS011;6915;48.296;8.874;2023-04-25T12:59:44;1.40;;;1.30;;
13685;SDS011;6915;48.296;8.874;2023-04-25T13:02:13;1.37;;;1.20;;
13685;SDS011;6915;48.296;8.874;2023-04-25T13:04:42;1.20;;;1.10;;
13685;SDS011;6915;48.296;8.874;2023-04-25T13:07:11;1.33;;;1.23;;
13685;SDS011;6915;48.296;8.874;2023-04-25T13:09:41;1.97;;;1.50;;
13685;SDS011;6915;48.296;8.874;2023-04-25T13:12:10;1.60;;;1.50;;
13685;SDS011;6915;48.296;8.874;2023-04-25T13:14:39;1.30;;;1.17;;
13685;SDS011;6915;48.296;8.874;2023-04-25T13:17:09;1.80;;;1.70;;
13685;SDS011;6915;48.296;8.874;2023-04-25T13:19:38;1.90;;;1.70;;
13685;SDS011;6915;48.296;8.874;2023-04-25T13:22:07;2.03;;;1.93;;
13685;SDS011;6915;48.296;8.874;2023-04-25T13:24:36;1.80;;;1.70;;
13685;SDS011;6915;48.296;8.874;2023-04-25T13:27:04;1.53;;;1.47;;
13685;SDS011;6915;48.296;8.874;2023-04-25T13:29:33;1.83;;;1.73;;
13685;SDS011;6915;48.296;8.874;2023-04-25T13:32:04;2.67;;;1.40;;
13685;SDS011;6915;48.296;8.874;2023-04-25T13:34:36;0.63;;;0.63;;
13685;SDS011;6915;48.296;8.874;2023-04-25T13:37:05;2.03;;;1.00;;
13685;SDS011;6915;48.296;8.874;2023-04-25T13:39:33;1.17;;;0.60;;
13685;SDS011;6915;48.296;8.874;2023-04-25T13:42:02;1.67;;;0.67;;
13685;SDS011;6915;48.296;8.874;2023-04-25T13:44:31;0.77;;;0.77;;
13685;SDS011;6915;48.296;8.874;2023-04-25T13:47:00;0.70;;;0.67;;
13685;SDS011;6915;48.296;8.874;2023-04-25T13:49:29;0.87;;;0.77;;
13685;SDS011;6915;48.296;8.874;2023-04-25T13:51:59;0.80;;;0.80;;
13685;SDS011;6915;48.296;8.874;2023-04-25T13:54:28;0.70;;;0.70;;
13685;SDS011;6915;48.296;8.874;2023-04-25T13:56:57;2.30;;;0.80;;
13685;SDS011;6915;48.296;8.874;2023-04-25T13:59:26;0.80;;;0.80;;
13685;SDS011;6915;48.296;8.874;2023-04-25T14:01:56;1.20;;;1.10;;
13685;SDS011;6915;48.296;8.874;2023-04-25T14:04:24;1.60;;;1.50;;
13685;SDS011;6915;48.296;8.874;2023-04-25T14:06:53;1.43;;;0.90;;
13685;SDS011;6915;48.296;8.874;2023-04-25T14:09:24;1.00;;;0.97;;
13685;SDS011;6915;48.296;8.874;2023-04-25T14:11:53;1.57;;;0.87;;
13685;SDS011;6915;48.296;8.874;2023-04-25T14:14:22;2.70;;;1.20;;
13685;SDS011;6915;48.296;8.874;2023-04-25T14:16:51;1.23;;;0.90;;
13685;SDS011;6915;48.296;8.874;2023-04-25T14:19:24;1.20;;;1.10;;
13685;SDS011;6915;48.296;8.874;2023-04-25T14:21:53;1.77;;;1.10;;
13685;SDS011;6915;48.296;8.874;2023-04-25T14:24:24;1.37;;;1.27;;
13685;SDS011;6915;48.296;8.874;2023-04-25T14:26:52;0.70;;;0.70;;
13685;SDS011;6915;48.296;8.874;2023-04-25T14:29:21;1.43;;;1.33;;
13685;SDS011;6915;48.296;8.874;2023-04-25T14:31:50;2.37;;;2.27;;
13685;SDS011;6915;48.296;8.874;2023-04-25T14:34:19;1.27;;;0.80;;
13685;SDS011;6915;48.296;8.874;2023-04-25T14:36:48;0.67;;;0.43;;
13685;SDS011;6915;48.296;8.874;2023-04-25T14:39:17;0.37;;;0.37;;
13685;SDS011;6915;48.296;8.874;2023-04-25T14:41:47;0.60;;;0.60;;
13685;SDS011;6915;48.296;8.874;2023-04-25T14:44:16;0.60;;;0.60;;
13685;SDS011;6915;48.296;8.874;2023-04-25T14:46:44;0.77;;;0.50;;
13685;SDS011;6915;48.296;8.874;2023-04-25T14:49:13;0.53;;;0.53;;
13685;SDS011;6915;48.296;8.874;2023-04-25T14:51:41;0.37;;;0.37;;
13685;SDS011;6915;48.296;8.874;2023-04-25T14:54:10;0.60;;;0.60;;
13685;SDS011;6915;48.296;8.874;2023-04-25T14:56:39;0.60;;;0.60;;
13685;SDS011;6915;48.296;8.874;2023-04-25T14:59:09;0.80;;;0.50;;
13685;SDS011;6915;48.296;8.874;2023-04-25T15:01:37;0.70;;;0.70;;
13685;SDS011;6915;48.296;8.874;2023-04-25T15:04:06;1.83;;;0.60;;
13685;SDS011;6915;48.296;8.874;2023-04-25T15:06:35;0.50;;;0.50;;
13685;SDS011;6915;48.296;8.874;2023-04-25T15:09:04;0.50;;;0.50;;
13685;SDS011;6915;48.296;8.874;2023-04-25T15:11:35;0.50;;;0.50;;
13685;SDS011;6915;48.296;8.874;2023-04-25T15:14:04;0.70;;;0.70;;
13685;SDS011;6915;48.296;8.874;2023-04-25T15:16:34;0.50;;;0.50;;
13685;SDS011;6915;48.296;8.874;2023-04-25T15:19:03;1.13;;;0.70;;
13685;SDS011;6915;48.296;8.874;2023-04-25T15:21:32;0.60;;;0.60;;
13685;SDS011;6915;48.296;8.874;2023-04-25T15:24:01;0.50;;;0.50;;
13685;SDS011;6915;48.296;8.874;2023-04-25T15:26:30;0.60;;;0.60;;
13685;SDS011;6915;48.296;8.874;2023-04-25T15:28:59;1.50;;;1.40;;
13685;SDS011;6915;48.296;8.874;2023-04-25T15:31:28;0.90;;;0.90;;